sensor_id;sensor_type;location;lat;lon;timestamp;P1;durP1;ratioP1;P2;durP2;ratioP2
24721;SDS011;12826;52.368;5.258;2022-08-18T00:00:26;11.38;;;7.90;;
24721;SDS011;12826;52.368;5.258;2022-08-18T00:03:34;16.17;;;8.27;;
24721;SDS011;12826;52.368;5.258;2022-08-18T00:06:34;12.65;;;7.68;;
24721;SDS011;12826;52.368;5.258;2022-08-18T00:09:37;18.35;;;7.50;;
24721;SDS011;12826;52.368;5.258;2022-08-18T00:12:51;18.23;;;8.35;;
24721;SDS011;12826;52.368;5.258;2022-08-18T00:15:54;12.40;;;7.70;;
24721;SDS011;12826;52.368;5.258;2022-08-18T00:18:55;24.92;;;8.32;;
24721;SDS011;12826;52.368;5.258;2022-08-18T00:21:58;15.45;;;8.50;;
24721;SDS011;12826;52.368;5.258;2022-08-18T00:25:01;23.77;;;8.85;;
24721;SDS011;12826;52.368;5.258;2022-08-18T00:28:06;15.57;;;8.35;;
24721;SDS011;12826;52.368;5.258;2022-08-18T00:31:09;8.65;;;7.75;;
24721;SDS011;12826;52.368;5.258;2022-08-18T00:34:12;17.08;;;8.43;;
24721;SDS011;12826;52.368;5.258;2022-08-18T00:37:20;16.50;;;8.63;;
24721;SDS011;12826;52.368;5.258;2022-08-18T00:40:25;23.70;;;8.35;;
24721;SDS011;12826;52.368;5.258;2022-08-18T00:43:46;20.80;;;8.63;;
24721;SDS011;12826;52.368;5.258;2022-08-18T00:46:50;20.02;;;8.65;;
24721;SDS011;12826;52.368;5.258;2022-08-18T00:49:53;11.93;;;7.55;;
24721;SDS011;12826;52.368;5.258;2022-08-18T00:56:37;13.57;;;8.20;;
24721;SDS011;12826;52.368;5.258;2022-08-18T01:03:33;19.02;;;8.48;;
24721;SDS011;12826;52.368;5.258;2022-08-18T01:06:55;30.42;;;8.93;;
24721;SDS011;12826;52.368;5.258;2022-08-18T01:10:02;15.40;;;7.95;;
24721;SDS011;12826;52.368;5.258;2022-08-18T01:13:04;18.75;;;7.30;;
24721;SDS011;12826;52.368;5.258;2022-08-18T01:16:13;20.15;;;8.18;;
24721;SDS011;12826;52.368;5.258;2022-08-18T01:19:32;13.98;;;7.40;;
24721;SDS011;12826;52.368;5.258;2022-08-18T01:22:57;33.47;;;7.82;;
24721;SDS011;12826;52.368;5.258;2022-08-18T01:26:03;21.58;;;8.00;;
24721;SDS011;12826;52.368;5.258;2022-08-18T01:29:05;12.88;;;8.35;;
24721;SDS011;12826;52.368;5.258;2022-08-18T01:32:12;15.20;;;7.63;;
24721;SDS011;12826;52.368;5.258;2022-08-18T01:35:18;16.25;;;7.70;;
24721;SDS011;12826;52.368;5.258;2022-08-18T01:38:21;32.85;;;8.48;;
24721;SDS011;12826;52.368;5.258;2022-08-18T01:41:22;18.67;;;8.20;;
24721;SDS011;12826;52.368;5.258;2022-08-18T01:44:25;17.38;;;7.75;;
24721;SDS011;12826;52.368;5.258;2022-08-18T01:47:28;16.13;;;8.30;;
24721;SDS011;12826;52.368;5.258;2022-08-18T01:50:34;23.02;;;8.23;;
24721;SDS011;12826;52.368;5.258;2022-08-18T01:53:42;32.05;;;9.65;;
24721;SDS011;12826;52.368;5.258;2022-08-18T01:56:43;25.92;;;9.32;;
24721;SDS011;12826;52.368;5.258;2022-08-18T01:59:50;25.98;;;9.93;;
24721;SDS011;12826;52.368;5.258;2022-08-18T02:02:53;18.33;;;9.93;;
24721;SDS011;12826;52.368;5.258;2022-08-18T02:05:55;20.85;;;8.93;;
24721;SDS011;12826;52.368;5.258;2022-08-18T02:09:01;20.33;;;8.65;;
24721;SDS011;12826;52.368;5.258;2022-08-18T02:12:05;30.55;;;8.85;;
24721;SDS011;12826;52.368;5.258;2022-08-18T02:15:07;43.95;;;9.30;;
24721;SDS011;12826;52.368;5.258;2022-08-18T02:18:14;12.40;;;7.25;;
24721;SDS011;12826;52.368;5.258;2022-08-18T02:21:31;22.73;;;8.02;;
24721;SDS011;12826;52.368;5.258;2022-08-18T02:24:35;22.15;;;9.00;;
24721;SDS011;12826;52.368;5.258;2022-08-18T02:27:35;39.63;;;9.65;;
24721;SDS011;12826;52.368;5.258;2022-08-18T02:30:38;17.95;;;7.90;;
24721;SDS011;12826;52.368;5.258;2022-08-18T02:33:39;25.92;;;8.82;;
24721;SDS011;12826;52.368;5.258;2022-08-18T02:36:40;39.70;;;9.30;;
24721;SDS011;12826;52.368;5.258;2022-08-18T02:39:47;27.42;;;9.10;;
24721;SDS011;12826;52.368;5.258;2022-08-18T02:42:48;24.33;;;9.05;;
24721;SDS011;12826;52.368;5.258;2022-08-18T02:45:54;23.75;;;9.55;;
24721;SDS011;12826;52.368;5.258;2022-08-18T02:48:58;21.98;;;9.82;;
24721;SDS011;12826;52.368;5.258;2022-08-18T02:52:02;15.45;;;8.80;;
24721;SDS011;12826;52.368;5.258;2022-08-18T02:55:03;24.25;;;9.18;;
24721;SDS011;12826;52.368;5.258;2022-08-18T02:58:09;19.73;;;9.48;;
24721;SDS011;12826;52.368;5.258;2022-08-18T03:01:15;24.73;;;9.18;;
24721;SDS011;12826;52.368;5.258;2022-08-18T03:04:17;22.35;;;8.73;;
24721;SDS011;12826;52.368;5.258;2022-08-18T03:07:19;25.60;;;9.02;;
24721;SDS011;12826;52.368;5.258;2022-08-18T03:10:29;26.88;;;9.18;;
24721;SDS011;12826;52.368;5.258;2022-08-18T03:13:40;28.88;;;9.95;;
24721;SDS011;12826;52.368;5.258;2022-08-18T03:16:48;18.52;;;10.23;;
24721;SDS011;12826;52.368;5.258;2022-08-18T03:19:56;34.13;;;10.48;;
24721;SDS011;12826;52.368;5.258;2022-08-18T03:22:59;33.58;;;10.63;;
24721;SDS011;12826;52.368;5.258;2022-08-18T03:26:05;52.95;;;11.30;;
24721;SDS011;12826;52.368;5.258;2022-08-18T03:29:13;84.70;;;13.38;;
24721;SDS011;12826;52.368;5.258;2022-08-18T03:32:34;32.28;;;11.82;;
24721;SDS011;12826;52.368;5.258;2022-08-18T03:35:36;24.35;;;11.50;;
24721;SDS011;12826;52.368;5.258;2022-08-18T03:38:43;20.98;;;13.68;;
24721;SDS011;12826;52.368;5.258;2022-08-18T03:41:50;16.73;;;13.05;;
24721;SDS011;12826;52.368;5.258;2022-08-18T03:44:58;24.48;;;14.07;;
24721;SDS011;12826;52.368;5.258;2022-08-18T03:48:11;24.67;;;13.63;;
24721;SDS011;12826;52.368;5.258;2022-08-18T03:51:27;25.95;;;14.63;;
24721;SDS011;12826;52.368;5.258;2022-08-18T03:54:32;19.58;;;12.98;;
24721;SDS011;12826;52.368;5.258;2022-08-18T03:57:35;24.23;;;13.73;;
24721;SDS011;12826;52.368;5.258;2022-08-18T04:00:41;16.80;;;13.38;;
24721;SDS011;12826;52.368;5.258;2022-08-18T04:03:44;28.38;;;13.38;;
24721;SDS011;12826;52.368;5.258;2022-08-18T04:06:52;23.98;;;12.73;;
24721;SDS011;12826;52.368;5.258;2022-08-18T04:10:00;49.15;;;13.40;;
24721;SDS011;12826;52.368;5.258;2022-08-18T04:13:00;14.88;;;11.80;;
24721;SDS011;12826;52.368;5.258;2022-08-18T04:16:07;19.10;;;11.85;;
24721;SDS011;12826;52.368;5.258;2022-08-18T04:19:11;23.00;;;11.57;;
24721;SDS011;12826;52.368;5.258;2022-08-18T04:22:15;29.02;;;11.77;;
24721;SDS011;12826;52.368;5.258;2022-08-18T04:25:18;19.48;;;11.40;;
24721;SDS011;12826;52.368;5.258;2022-08-18T04:28:26;16.90;;;11.05;;
24721;SDS011;12826;52.368;5.258;2022-08-18T04:31:30;22.30;;;12.77;;
24721;SDS011;12826;52.368;5.258;2022-08-18T04:34:43;23.77;;;11.90;;
24721;SDS011;12826;52.368;5.258;2022-08-18T04:37:46;15.02;;;11.43;;
24721;SDS011;12826;52.368;5.258;2022-08-18T04:40:49;15.55;;;12.07;;
24721;SDS011;12826;52.368;5.258;2022-08-18T04:43:50;37.60;;;12.35;;
24721;SDS011;12826;52.368;5.258;2022-08-18T04:46:57;30.83;;;11.85;;
24721;SDS011;12826;52.368;5.258;2022-08-18T04:49:57;27.02;;;11.88;;
24721;SDS011;12826;52.368;5.258;2022-08-18T04:53:19;34.03;;;11.65;;
24721;SDS011;12826;52.368;5.258;2022-08-18T04:56:46;33.85;;;12.10;;
24721;SDS011;12826;52.368;5.258;2022-08-18T04:59:49;50.10;;;12.15;;
24721;SDS011;12826;52.368;5.258;2022-08-18T05:02:55;30.10;;;11.73;;
24721;SDS011;12826;52.368;5.258;2022-08-18T05:05:56;36.05;;;12.05;;
24721;SDS011;12826;52.368;5.258;2022-08-18T05:09:05;21.17;;;10.85;;
24721;SDS011;12826;52.368;5.258;2022-08-18T05:12:08;22.67;;;11.27;;
24721;SDS011;12826;52.368;5.258;2022-08-18T05:15:14;20.23;;;11.57;;
24721;SDS011;12826;52.368;5.258;2022-08-18T05:18:17;15.70;;;11.43;;
24721;SDS011;12826;52.368;5.258;2022-08-18T05:21:24;26.02;;;10.75;;
24721;SDS011;12826;52.368;5.258;2022-08-18T05:24:25;35.72;;;11.32;;
24721;SDS011;12826;52.368;5.258;2022-08-18T05:27:32;13.40;;;10.63;;
24721;SDS011;12826;52.368;5.258;2022-08-18T05:30:34;21.30;;;10.40;;
24721;SDS011;12826;52.368;5.258;2022-08-18T05:33:42;14.18;;;10.70;;
24721;SDS011;12826;52.368;5.258;2022-08-18T05:37:03;17.58;;;10.55;;
24721;SDS011;12826;52.368;5.258;2022-08-18T05:40:25;13.60;;;9.85;;
24721;SDS011;12826;52.368;5.258;2022-08-18T05:43:39;12.45;;;10.40;;
24721;SDS011;12826;52.368;5.258;2022-08-18T05:46:56;14.05;;;10.25;;
24721;SDS011;12826;52.368;5.258;2022-08-18T05:50:18;11.73;;;9.88;;
24721;SDS011;12826;52.368;5.258;2022-08-18T05:53:29;38.47;;;12.15;;
24721;SDS011;12826;52.368;5.258;2022-08-18T05:56:53;15.57;;;9.93;;
24721;SDS011;12826;52.368;5.258;2022-08-18T06:00:03;13.75;;;10.70;;
24721;SDS011;12826;52.368;5.258;2022-08-18T06:03:28;13.88;;;10.07;;
24721;SDS011;12826;52.368;5.258;2022-08-18T06:06:40;18.67;;;9.88;;
24721;SDS011;12826;52.368;5.258;2022-08-18T06:13:13;12.80;;;8.82;;
24721;SDS011;12826;52.368;5.258;2022-08-18T06:23:19;9.05;;;7.97;;
24721;SDS011;12826;52.368;5.258;2022-08-18T06:26:33;11.80;;;8.05;;
24721;SDS011;12826;52.368;5.258;2022-08-18T06:29:58;15.70;;;8.45;;
24721;SDS011;12826;52.368;5.258;2022-08-18T06:36:17;12.52;;;7.50;;
24721;SDS011;12826;52.368;5.258;2022-08-18T06:43:08;8.40;;;6.60;;
24721;SDS011;12826;52.368;5.258;2022-08-18T06:46:27;18.30;;;7.78;;
24721;SDS011;12826;52.368;5.258;2022-08-18T06:49:41;8.65;;;5.65;;
24721;SDS011;12826;52.368;5.258;2022-08-18T06:53:12;10.55;;;5.28;;
24721;SDS011;12826;52.368;5.258;2022-08-18T06:56:21;13.52;;;5.35;;
24721;SDS011;12826;52.368;5.258;2022-08-18T06:59:58;8.05;;;4.82;;
24721;SDS011;12826;52.368;5.258;2022-08-18T07:03:10;13.13;;;5.28;;
24721;SDS011;12826;52.368;5.258;2022-08-18T07:09:24;8.70;;;5.13;;
24721;SDS011;12826;52.368;5.258;2022-08-18T07:12:28;12.70;;;5.63;;
24721;SDS011;12826;52.368;5.258;2022-08-18T07:15:29;8.07;;;5.63;;
24721;SDS011;12826;52.368;5.258;2022-08-18T07:18:35;8.45;;;4.50;;
24721;SDS011;12826;52.368;5.258;2022-08-18T07:21:37;6.20;;;4.93;;
24721;SDS011;12826;52.368;5.258;2022-08-18T07:24:42;10.55;;;4.93;;
24721;SDS011;12826;52.368;5.258;2022-08-18T07:27:48;7.90;;;4.68;;
24721;SDS011;12826;52.368;5.258;2022-08-18T07:30:49;6.72;;;4.70;;
24721;SDS011;12826;52.368;5.258;2022-08-18T07:33:55;8.18;;;4.68;;
24721;SDS011;12826;52.368;5.258;2022-08-18T07:37:03;6.30;;;4.38;;
24721;SDS011;12826;52.368;5.258;2022-08-18T07:40:28;5.88;;;4.57;;
24721;SDS011;12826;52.368;5.258;2022-08-18T07:47:10;5.63;;;3.72;;
24721;SDS011;12826;52.368;5.258;2022-08-18T07:50:14;10.90;;;4.15;;
24721;SDS011;12826;52.368;5.258;2022-08-18T07:56:38;10.57;;;4.10;;
24721;SDS011;12826;52.368;5.258;2022-08-18T08:00:15;14.83;;;4.97;;
24721;SDS011;12826;52.368;5.258;2022-08-18T08:03:51;6.38;;;4.22;;
24721;SDS011;12826;52.368;5.258;2022-08-18T08:07:11;10.65;;;4.93;;
24721;SDS011;12826;52.368;5.258;2022-08-18T08:10:32;11.93;;;5.78;;
24721;SDS011;12826;52.368;5.258;2022-08-18T08:13:55;16.38;;;5.03;;
24721;SDS011;12826;52.368;5.258;2022-08-18T08:17:06;11.82;;;4.65;;
24721;SDS011;12826;52.368;5.258;2022-08-18T08:23:56;8.30;;;4.78;;
24721;SDS011;12826;52.368;5.258;2022-08-18T08:27:27;12.90;;;4.38;;
24721;SDS011;12826;52.368;5.258;2022-08-18T08:30:51;8.93;;;4.63;;
24721;SDS011;12826;52.368;5.258;2022-08-18T08:34:12;7.20;;;4.80;;
24721;SDS011;12826;52.368;5.258;2022-08-18T08:38:07;6.15;;;4.72;;
24721;SDS011;12826;52.368;5.258;2022-08-18T08:40:56;7.07;;;3.97;;
24721;SDS011;12826;52.368;5.258;2022-08-18T08:44:05;6.60;;;4.32;;
24721;SDS011;12826;52.368;5.258;2022-08-18T08:47:16;6.82;;;4.05;;
24721;SDS011;12826;52.368;5.258;2022-08-18T08:50:21;8.15;;;3.85;;
24721;SDS011;12826;52.368;5.258;2022-08-18T08:56:49;6.22;;;4.03;;
24721;SDS011;12826;52.368;5.258;2022-08-18T08:59:50;6.75;;;4.07;;
24721;SDS011;12826;52.368;5.258;2022-08-18T09:06:19;6.45;;;3.33;;
24721;SDS011;12826;52.368;5.258;2022-08-18T09:13:26;7.97;;;3.50;;
24721;SDS011;12826;52.368;5.258;2022-08-18T09:20:56;6.97;;;3.20;;
24721;SDS011;12826;52.368;5.258;2022-08-18T09:24:21;4.20;;;3.00;;
24721;SDS011;12826;52.368;5.258;2022-08-18T09:27:42;6.65;;;3.15;;
24721;SDS011;12826;52.368;5.258;2022-08-18T09:37:37;11.15;;;3.90;;
24721;SDS011;12826;52.368;5.258;2022-08-18T09:41:11;11.48;;;3.60;;
24721;SDS011;12826;52.368;5.258;2022-08-18T09:50:57;4.40;;;2.55;;
24721;SDS011;12826;52.368;5.258;2022-08-18T09:54:15;6.38;;;2.80;;
24721;SDS011;12826;52.368;5.258;2022-08-18T09:57:23;6.60;;;2.75;;
24721;SDS011;12826;52.368;5.258;2022-08-18T10:01:02;4.90;;;2.80;;
24721;SDS011;12826;52.368;5.258;2022-08-18T10:04:34;3.67;;;2.63;;
24721;SDS011;12826;52.368;5.258;2022-08-18T10:11:22;6.82;;;3.38;;
24721;SDS011;12826;52.368;5.258;2022-08-18T10:24:57;4.05;;;2.38;;
24721;SDS011;12826;52.368;5.258;2022-08-18T10:28:50;5.70;;;2.40;;
24721;SDS011;12826;52.368;5.258;2022-08-18T10:38:41;2.60;;;2.13;;
24721;SDS011;12826;52.368;5.258;2022-08-18T10:42:03;2.20;;;2.00;;
24721;SDS011;12826;52.368;5.258;2022-08-18T10:48:37;2.58;;;2.03;;
24721;SDS011;12826;52.368;5.258;2022-08-18T10:52:05;4.03;;;2.40;;
24721;SDS011;12826;52.368;5.258;2022-08-18T10:55:14;3.60;;;2.53;;
24721;SDS011;12826;52.368;5.258;2022-08-18T10:58:28;2.97;;;2.20;;
24721;SDS011;12826;52.368;5.258;2022-08-18T11:04:59;3.60;;;2.17;;
24721;SDS011;12826;52.368;5.258;2022-08-18T11:08:15;2.80;;;2.15;;
24721;SDS011;12826;52.368;5.258;2022-08-18T11:11:23;3.30;;;2.10;;
24721;SDS011;12826;52.368;5.258;2022-08-18T11:17:51;2.78;;;2.22;;
24721;SDS011;12826;52.368;5.258;2022-08-18T11:21:24;4.40;;;3.05;;
24721;SDS011;12826;52.368;5.258;2022-08-18T11:24:34;4.43;;;2.72;;
24721;SDS011;12826;52.368;5.258;2022-08-18T11:28:12;2.20;;;1.70;;
24721;SDS011;12826;52.368;5.258;2022-08-18T11:31:27;2.40;;;1.40;;
24721;SDS011;12826;52.368;5.258;2022-08-18T11:34:50;3.78;;;1.67;;
24721;SDS011;12826;52.368;5.258;2022-08-18T11:38:03;1.83;;;1.73;;
24721;SDS011;12826;52.368;5.258;2022-08-18T11:44:27;3.90;;;1.60;;
24721;SDS011;12826;52.368;5.258;2022-08-18T11:47:35;6.47;;;1.48;;
24721;SDS011;12826;52.368;5.258;2022-08-18T11:54:18;3.33;;;1.25;;
24721;SDS011;12826;52.368;5.258;2022-08-18T11:57:39;3.53;;;1.15;;
24721;SDS011;12826;52.368;5.258;2022-08-18T12:00:54;4.97;;;1.50;;
24721;SDS011;12826;52.368;5.258;2022-08-18T12:08:03;2.33;;;1.77;;
24721;SDS011;12826;52.368;5.258;2022-08-18T12:11:14;4.00;;;1.30;;
24721;SDS011;12826;52.368;5.258;2022-08-18T12:14:22;3.33;;;1.60;;
24721;SDS011;12826;52.368;5.258;2022-08-18T12:17:34;5.25;;;1.40;;
24721;SDS011;12826;52.368;5.258;2022-08-18T12:20:38;4.43;;;1.45;;
24721;SDS011;12826;52.368;5.258;2022-08-18T12:23:39;4.25;;;1.20;;
24721;SDS011;12826;52.368;5.258;2022-08-18T12:26:40;1.90;;;0.88;;
24721;SDS011;12826;52.368;5.258;2022-08-18T12:29:43;2.17;;;1.10;;
24721;SDS011;12826;52.368;5.258;2022-08-18T12:32:43;2.55;;;0.95;;
24721;SDS011;12826;52.368;5.258;2022-08-18T12:35:45;4.50;;;1.10;;
24721;SDS011;12826;52.368;5.258;2022-08-18T12:38:46;1.25;;;0.98;;
24721;SDS011;12826;52.368;5.258;2022-08-18T12:42:08;2.22;;;1.20;;
24721;SDS011;12826;52.368;5.258;2022-08-18T12:45:13;2.92;;;1.00;;
24721;SDS011;12826;52.368;5.258;2022-08-18T12:48:13;2.40;;;1.05;;
24721;SDS011;12826;52.368;5.258;2022-08-18T12:51:16;1.35;;;0.93;;
24721;SDS011;12826;52.368;5.258;2022-08-18T12:54:27;3.95;;;1.00;;
24721;SDS011;12826;52.368;5.258;2022-08-18T12:57:34;3.42;;;1.58;;
24721;SDS011;12826;52.368;5.258;2022-08-18T13:00:39;3.60;;;1.50;;
24721;SDS011;12826;52.368;5.258;2022-08-18T13:03:50;5.65;;;1.15;;
24721;SDS011;12826;52.368;5.258;2022-08-18T13:07:00;3.72;;;1.30;;
24721;SDS011;12826;52.368;5.258;2022-08-18T13:10:04;3.45;;;1.45;;
24721;SDS011;12826;52.368;5.258;2022-08-18T13:13:07;3.53;;;1.25;;
24721;SDS011;12826;52.368;5.258;2022-08-18T13:16:10;3.33;;;1.02;;
24721;SDS011;12826;52.368;5.258;2022-08-18T13:19:20;4.68;;;1.45;;
24721;SDS011;12826;52.368;5.258;2022-08-18T13:22:21;4.65;;;1.30;;
24721;SDS011;12826;52.368;5.258;2022-08-18T13:25:24;11.98;;;1.55;;
24721;SDS011;12826;52.368;5.258;2022-08-18T13:28:35;5.25;;;1.00;;
24721;SDS011;12826;52.368;5.258;2022-08-18T13:31:39;2.97;;;1.20;;
24721;SDS011;12826;52.368;5.258;2022-08-18T13:34:46;2.63;;;1.00;;
24721;SDS011;12826;52.368;5.258;2022-08-18T13:37:51;1.88;;;1.40;;
24721;SDS011;12826;52.368;5.258;2022-08-18T13:40:58;6.93;;;1.25;;
24721;SDS011;12826;52.368;5.258;2022-08-18T13:44:03;6.05;;;1.40;;
24721;SDS011;12826;52.368;5.258;2022-08-18T13:47:34;5.20;;;1.27;;
24721;SDS011;12826;52.368;5.258;2022-08-18T13:50:53;6.28;;;1.27;;
24721;SDS011;12826;52.368;5.258;2022-08-18T13:54:02;3.67;;;1.23;;
24721;SDS011;12826;52.368;5.258;2022-08-18T13:57:21;3.45;;;1.35;;
24721;SDS011;12826;52.368;5.258;2022-08-18T14:00:33;4.47;;;1.58;;
24721;SDS011;12826;52.368;5.258;2022-08-18T14:03:45;8.63;;;1.70;;
24721;SDS011;12826;52.368;5.258;2022-08-18T14:06:46;7.50;;;2.20;;
24721;SDS011;12826;52.368;5.258;2022-08-18T14:09:47;5.93;;;1.60;;
24721;SDS011;12826;52.368;5.258;2022-08-18T14:12:47;4.40;;;1.30;;
24721;SDS011;12826;52.368;5.258;2022-08-18T14:16:00;9.93;;;1.50;;
24721;SDS011;12826;52.368;5.258;2022-08-18T14:19:03;2.20;;;1.33;;
24721;SDS011;12826;52.368;5.258;2022-08-18T14:22:25;6.50;;;1.63;;
24721;SDS011;12826;52.368;5.258;2022-08-18T14:25:48;3.58;;;1.55;;
24721;SDS011;12826;52.368;5.258;2022-08-18T14:29:10;16.85;;;2.17;;
24721;SDS011;12826;52.368;5.258;2022-08-18T14:32:16;5.70;;;1.50;;
24721;SDS011;12826;52.368;5.258;2022-08-18T14:38:32;4.13;;;1.27;;
24721;SDS011;12826;52.368;5.258;2022-08-18T14:41:40;11.88;;;1.65;;
24721;SDS011;12826;52.368;5.258;2022-08-18T14:44:47;7.80;;;2.25;;
24721;SDS011;12826;52.368;5.258;2022-08-18T14:47:50;7.57;;;1.83;;
24721;SDS011;12826;52.368;5.258;2022-08-18T14:51:11;5.15;;;1.55;;
24721;SDS011;12826;52.368;5.258;2022-08-18T14:54:11;8.50;;;1.70;;
24721;SDS011;12826;52.368;5.258;2022-08-18T14:57:12;2.10;;;1.20;;
24721;SDS011;12826;52.368;5.258;2022-08-18T15:00:16;7.75;;;1.50;;
24721;SDS011;12826;52.368;5.258;2022-08-18T15:03:20;3.80;;;1.77;;
24721;SDS011;12826;52.368;5.258;2022-08-18T15:06:34;6.25;;;2.03;;
24721;SDS011;12826;52.368;5.258;2022-08-18T15:09:44;11.65;;;2.05;;
24721;SDS011;12826;52.368;5.258;2022-08-18T15:12:47;12.30;;;2.15;;
24721;SDS011;12826;52.368;5.258;2022-08-18T15:19:03;4.53;;;1.63;;
24721;SDS011;12826;52.368;5.258;2022-08-18T15:22:04;5.95;;;1.60;;
24721;SDS011;12826;52.368;5.258;2022-08-18T15:25:23;7.90;;;1.70;;
24721;SDS011;12826;52.368;5.258;2022-08-18T15:28:40;2.38;;;1.50;;
24721;SDS011;12826;52.368;5.258;2022-08-18T15:31:46;3.70;;;1.83;;
24721;SDS011;12826;52.368;5.258;2022-08-18T15:34:49;1.42;;;1.33;;
24721;SDS011;12826;52.368;5.258;2022-08-18T15:37:50;3.08;;;1.48;;
24721;SDS011;12826;52.368;5.258;2022-08-18T15:40:54;4.07;;;1.52;;
24721;SDS011;12826;52.368;5.258;2022-08-18T15:44:02;2.58;;;1.35;;
24721;SDS011;12826;52.368;5.258;2022-08-18T15:47:09;2.40;;;1.30;;
24721;SDS011;12826;52.368;5.258;2022-08-18T15:50:15;3.83;;;1.35;;
24721;SDS011;12826;52.368;5.258;2022-08-18T15:53:28;3.47;;;1.67;;
24721;SDS011;12826;52.368;5.258;2022-08-18T15:56:31;1.92;;;1.60;;
24721;SDS011;12826;52.368;5.258;2022-08-18T15:59:33;4.63;;;1.75;;
24721;SDS011;12826;52.368;5.258;2022-08-18T16:02:41;1.92;;;1.40;;
24721;SDS011;12826;52.368;5.258;2022-08-18T16:05:54;8.07;;;2.30;;
24721;SDS011;12826;52.368;5.258;2022-08-18T16:09:07;3.58;;;1.52;;
24721;SDS011;12826;52.368;5.258;2022-08-18T16:12:17;4.53;;;1.70;;
24721;SDS011;12826;52.368;5.258;2022-08-18T16:15:44;4.97;;;1.40;;
24721;SDS011;12826;52.368;5.258;2022-08-18T16:18:49;2.95;;;1.60;;
24721;SDS011;12826;52.368;5.258;2022-08-18T16:21:53;3.25;;;1.45;;
24721;SDS011;12826;52.368;5.258;2022-08-18T16:25:09;4.60;;;1.50;;
24721;SDS011;12826;52.368;5.258;2022-08-18T16:28:27;2.53;;;1.42;;
24721;SDS011;12826;52.368;5.258;2022-08-18T16:38:36;3.17;;;1.55;;
24721;SDS011;12826;52.368;5.258;2022-08-18T16:41:42;6.93;;;2.33;;
24721;SDS011;12826;52.368;5.258;2022-08-18T16:44:43;9.23;;;1.50;;
24721;SDS011;12826;52.368;5.258;2022-08-18T16:47:49;5.80;;;1.50;;
24721;SDS011;12826;52.368;5.258;2022-08-18T16:50:52;4.95;;;1.50;;
24721;SDS011;12826;52.368;5.258;2022-08-18T16:53:53;6.85;;;1.50;;
24721;SDS011;12826;52.368;5.258;2022-08-18T16:56:54;1.58;;;1.48;;
24721;SDS011;12826;52.368;5.258;2022-08-18T16:59:57;4.45;;;1.50;;
24721;SDS011;12826;52.368;5.258;2022-08-18T17:03:16;2.78;;;1.45;;
24721;SDS011;12826;52.368;5.258;2022-08-18T17:06:38;4.03;;;1.75;;
24721;SDS011;12826;52.368;5.258;2022-08-18T17:09:59;2.15;;;1.50;;
24721;SDS011;12826;52.368;5.258;2022-08-18T17:13:04;6.63;;;1.63;;
24721;SDS011;12826;52.368;5.258;2022-08-18T17:16:06;4.25;;;1.60;;
24721;SDS011;12826;52.368;5.258;2022-08-18T17:19:10;2.58;;;1.35;;
24721;SDS011;12826;52.368;5.258;2022-08-18T17:22:11;4.80;;;1.48;;
24721;SDS011;12826;52.368;5.258;2022-08-18T17:25:16;2.63;;;1.70;;
24721;SDS011;12826;52.368;5.258;2022-08-18T17:28:20;7.22;;;1.75;;
24721;SDS011;12826;52.368;5.258;2022-08-18T17:31:21;5.53;;;2.13;;
24721;SDS011;12826;52.368;5.258;2022-08-18T17:34:36;13.02;;;2.33;;
24721;SDS011;12826;52.368;5.258;2022-08-18T17:37:47;5.15;;;1.77;;
24721;SDS011;12826;52.368;5.258;2022-08-18T17:40:59;23.17;;;2.83;;
24721;SDS011;12826;52.368;5.258;2022-08-18T17:44:03;6.47;;;1.80;;
24721;SDS011;12826;52.368;5.258;2022-08-18T17:47:08;6.43;;;1.83;;
24721;SDS011;12826;52.368;5.258;2022-08-18T17:50:14;28.40;;;2.50;;
24721;SDS011;12826;52.368;5.258;2022-08-18T17:53:43;10.32;;;2.17;;
24721;SDS011;12826;52.368;5.258;2022-08-18T17:56:47;7.75;;;2.25;;
24721;SDS011;12826;52.368;5.258;2022-08-18T18:00:11;6.82;;;1.98;;
24721;SDS011;12826;52.368;5.258;2022-08-18T18:03:13;12.95;;;2.58;;
24721;SDS011;12826;52.368;5.258;2022-08-18T18:06:22;9.23;;;2.10;;
24721;SDS011;12826;52.368;5.258;2022-08-18T18:09:29;23.63;;;2.95;;
24721;SDS011;12826;52.368;5.258;2022-08-18T18:12:35;12.57;;;1.92;;
24721;SDS011;12826;52.368;5.258;2022-08-18T18:15:37;8.98;;;2.75;;
24721;SDS011;12826;52.368;5.258;2022-08-18T18:18:45;8.18;;;1.50;;
24721;SDS011;12826;52.368;5.258;2022-08-18T18:22:40;6.70;;;2.30;;
24721;SDS011;12826;52.368;5.258;2022-08-18T18:25:40;4.68;;;2.58;;
24721;SDS011;12826;52.368;5.258;2022-08-18T18:28:43;14.35;;;2.67;;
24721;SDS011;12826;52.368;5.258;2022-08-18T18:32:00;20.38;;;7.70;;
24721;SDS011;12826;52.368;5.258;2022-08-18T18:35:21;4.38;;;2.10;;
24721;SDS011;12826;52.368;5.258;2022-08-18T18:38:35;7.05;;;2.38;;
24721;SDS011;12826;52.368;5.258;2022-08-18T18:41:50;13.73;;;3.10;;
24721;SDS011;12826;52.368;5.258;2022-08-18T18:44:56;7.22;;;2.20;;
24721;SDS011;12826;52.368;5.258;2022-08-18T18:51:24;14.15;;;2.80;;
24721;SDS011;12826;52.368;5.258;2022-08-18T18:54:31;9.70;;;2.47;;
24721;SDS011;12826;52.368;5.258;2022-08-18T19:01:12;13.00;;;2.60;;
24721;SDS011;12826;52.368;5.258;2022-08-18T19:04:23;6.78;;;2.30;;
24721;SDS011;12826;52.368;5.258;2022-08-18T19:11:15;13.43;;;2.58;;
24721;SDS011;12826;52.368;5.258;2022-08-18T19:14:24;4.85;;;2.50;;
24721;SDS011;12826;52.368;5.258;2022-08-18T19:17:34;6.20;;;2.85;;
24721;SDS011;12826;52.368;5.258;2022-08-18T19:20:39;16.02;;;3.78;;
24721;SDS011;12826;52.368;5.258;2022-08-18T19:23:55;6.43;;;3.00;;
24721;SDS011;12826;52.368;5.258;2022-08-18T19:27:02;11.07;;;3.00;;
24721;SDS011;12826;52.368;5.258;2022-08-18T19:30:08;10.15;;;2.92;;
24721;SDS011;12826;52.368;5.258;2022-08-18T19:33:17;21.90;;;4.00;;
24721;SDS011;12826;52.368;5.258;2022-08-18T19:39:50;24.52;;;4.18;;
24721;SDS011;12826;52.368;5.258;2022-08-18T19:43:03;31.33;;;5.10;;
24721;SDS011;12826;52.368;5.258;2022-08-18T19:52:56;18.48;;;4.30;;
24721;SDS011;12826;52.368;5.258;2022-08-18T19:59:39;9.35;;;3.30;;
24721;SDS011;12826;52.368;5.258;2022-08-18T20:16:33;15.05;;;3.80;;
24721;SDS011;12826;52.368;5.258;2022-08-18T20:19:48;9.02;;;3.88;;
24721;SDS011;12826;52.368;5.258;2022-08-18T20:23:31;28.88;;;5.43;;
24721;SDS011;12826;52.368;5.258;2022-08-18T20:32:37;19.60;;;5.30;;
24721;SDS011;12826;52.368;5.258;2022-08-18T20:35:39;49.17;;;6.38;;
24721;SDS011;12826;52.368;5.258;2022-08-18T20:38:46;24.08;;;5.50;;
24721;SDS011;12826;52.368;5.258;2022-08-18T20:41:49;27.20;;;4.75;;
24721;SDS011;12826;52.368;5.258;2022-08-18T20:48:15;21.23;;;3.42;;
24721;SDS011;12826;52.368;5.258;2022-08-18T20:51:27;16.55;;;3.67;;
24721;SDS011;12826;52.368;5.258;2022-08-18T20:54:56;16.42;;;4.07;;
24721;SDS011;12826;52.368;5.258;2022-08-18T20:58:20;10.93;;;3.40;;
24721;SDS011;12826;52.368;5.258;2022-08-18T21:01:33;8.27;;;3.10;;
24721;SDS011;12826;52.368;5.258;2022-08-18T21:04:46;10.25;;;3.63;;
24721;SDS011;12826;52.368;5.258;2022-08-18T21:11:35;5.90;;;3.17;;
24721;SDS011;12826;52.368;5.258;2022-08-18T21:14:42;8.65;;;3.30;;
24721;SDS011;12826;52.368;5.258;2022-08-18T21:18:03;12.32;;;3.78;;
24721;SDS011;12826;52.368;5.258;2022-08-18T21:21:17;15.07;;;3.70;;
24721;SDS011;12826;52.368;5.258;2022-08-18T21:24:35;53.35;;;6.25;;
24721;SDS011;12826;52.368;5.258;2022-08-18T21:27:40;10.55;;;4.30;;
24721;SDS011;12826;52.368;5.258;2022-08-18T21:31:44;12.30;;;3.83;;
24721;SDS011;12826;52.368;5.258;2022-08-18T21:34:38;7.55;;;4.00;;
24721;SDS011;12826;52.368;5.258;2022-08-18T21:37:41;20.58;;;4.07;;
24721;SDS011;12826;52.368;5.258;2022-08-18T21:41:05;11.20;;;4.32;;
24721;SDS011;12826;52.368;5.258;2022-08-18T21:44:15;8.57;;;3.60;;